createdAt,value
2022-09-27T00:02:09.099Z,5.88
2022-09-27T00:04:36.619Z,3.05
2022-09-27T00:07:04.082Z,4.60
2022-09-27T00:09:31.498Z,5.30
2022-09-27T00:11:58.946Z,4.70
2022-09-27T00:14:26.359Z,3.60
2022-09-27T00:16:53.836Z,4.63
2022-09-27T00:19:23.815Z,4.18
2022-09-27T00:21:51.449Z,3.22
2022-09-27T00:24:19.886Z,3.90
2022-09-27T00:26:47.774Z,4.65
2022-09-27T00:29:15.814Z,4.20
2022-09-27T00:31:43.571Z,4.45
2022-09-27T00:34:17.606Z,3.78
2022-09-27T00:36:46.862Z,4.15
2022-09-27T00:39:14.745Z,3.67
2022-09-27T00:41:42.595Z,3.13
2022-09-27T00:44:24.899Z,3.45
2022-09-27T00:46:55.124Z,4.57
2022-09-27T00:49:25.290Z,4.25
2022-09-27T00:51:55.880Z,4.10
2022-09-27T00:54:25.755Z,3.72
2022-09-27T00:56:53.495Z,3.03
2022-09-27T00:59:22.675Z,3.25
2022-09-27T01:01:51.078Z,3.92
2022-09-27T01:04:22.597Z,3.47
2022-09-27T01:06:50.039Z,3.60
2022-09-27T01:09:19.111Z,4.95
2022-09-27T01:11:49.413Z,3.22
2022-09-27T01:14:25.212Z,3.15
2022-09-27T01:16:57.074Z,3.83
2022-09-27T01:19:39.447Z,3.03
2022-09-27T01:22:09.638Z,3.25
2022-09-27T01:25:01.326Z,4.63
2022-09-27T01:27:45.594Z,2.92
2022-09-27T01:30:24.744Z,3.17
2022-09-27T01:32:55.279Z,3.85
2022-09-27T01:35:27.005Z,4.82
2022-09-27T01:37:59.104Z,3.85
2022-09-27T01:40:33.339Z,6.10
2022-09-27T01:43:04.960Z,2.05
2022-09-27T01:45:37.266Z,3.58
2022-09-27T01:48:08.532Z,3.10
2022-09-27T01:50:38.445Z,2.85
2022-09-27T01:53:07.610Z,5.00
2022-09-27T01:55:37.574Z,3.67
2022-09-27T01:58:07.779Z,4.40
2022-09-27T02:00:37.417Z,3.05
2022-09-27T02:03:06.987Z,2.78
2022-09-27T02:05:36.313Z,2.53
2022-09-27T02:08:05.562Z,3.03
2022-09-27T02:10:36.470Z,3.17
2022-09-27T02:15:33.717Z,2.22
2022-09-27T02:18:03.126Z,3.17
2022-09-27T02:20:31.888Z,2.97
2022-09-27T02:23:03.987Z,2.55
2022-09-27T02:25:34.807Z,3.45
2022-09-27T02:28:07.415Z,2.70
2022-09-27T02:30:34.933Z,4.65
2022-09-27T02:33:04.056Z,3.08
2022-09-27T02:35:33.563Z,2.28
2022-09-27T02:38:01.570Z,2.30
2022-09-27T02:40:32.789Z,2.20
2022-09-27T02:43:00.773Z,3.22
2022-09-27T02:45:31.600Z,3.83
2022-09-27T02:50:39.638Z,2.90
2022-09-27T02:53:11.350Z,3.78
2022-09-27T02:55:44.568Z,3.40
2022-09-27T02:58:17.858Z,3.22
2022-09-27T03:00:50.159Z,4.22
2022-09-27T03:03:22.287Z,4.00
2022-09-27T03:05:52.968Z,3.65
2022-09-27T03:08:20.547Z,3.33
2022-09-27T03:10:48.267Z,3.75
2022-09-27T03:13:15.716Z,4.47
2022-09-27T03:15:43.173Z,2.75
2022-09-27T03:18:10.628Z,3.47
2022-09-27T03:20:38.041Z,3.97
2022-09-27T03:23:06.847Z,7.85
2022-09-27T03:25:34.257Z,3.67
2022-09-27T03:28:01.859Z,3.58
2022-09-27T03:30:29.274Z,3.47
2022-09-27T03:32:56.701Z,3.63
2022-09-27T03:35:24.160Z,6.63
2022-09-27T03:37:51.631Z,6.18
2022-09-27T03:40:20.482Z,9.35
2022-09-27T03:42:50.007Z,8.40
2022-09-27T03:45:17.724Z,8.73
2022-09-27T03:47:45.203Z,5.47
2022-09-27T03:50:13.161Z,5.75
2022-09-27T03:52:40.865Z,5.10
2022-09-27T03:55:08.604Z,4.53
2022-09-27T03:57:37.389Z,2.83
2022-09-27T04:00:05.025Z,4.75
2022-09-27T04:02:32.574Z,5.88
2022-09-27T04:05:00.106Z,4.40
2022-09-27T04:07:27.531Z,4.18
2022-09-27T04:09:55.310Z,4.40
2022-09-27T04:12:22.788Z,5.03
2022-09-27T04:14:51.565Z,3.42
2022-09-27T04:17:18.978Z,4.47
2022-09-27T04:19:46.392Z,4.63
2022-09-27T04:22:15.439Z,7.93
2022-09-27T04:24:42.893Z,3.35
2022-09-27T04:27:10.320Z,7.97
2022-09-27T04:29:37.740Z,12.15
2022-09-27T04:32:06.521Z,7.22
2022-09-27T04:34:59.581Z,7.80
2022-09-27T04:37:27.994Z,5.45
2022-09-27T04:39:55.445Z,3.60
2022-09-27T04:42:22.874Z,3.15
2022-09-27T04:44:50.321Z,3.53
2022-09-27T04:47:21.083Z,4.72
2022-09-27T04:49:49.574Z,3.38
2022-09-27T04:52:17.039Z,3.65
2022-09-27T04:54:44.452Z,4.97
2022-09-27T04:57:12.821Z,3.67
2022-09-27T04:59:40.586Z,3.50
2022-09-27T05:02:08.056Z,3.50
2022-09-27T05:04:36.885Z,4.50
2022-09-27T05:07:05.027Z,3.55
2022-09-27T05:09:32.464Z,3.50
2022-09-27T05:12:00.127Z,3.90
2022-09-27T05:14:27.603Z,2.95
2022-09-27T05:16:55.696Z,4.10
2022-09-27T05:19:23.766Z,3.70
2022-09-27T05:21:52.532Z,7.45
2022-09-27T05:24:21.322Z,3.42
2022-09-27T05:26:48.775Z,5.60
2022-09-27T05:29:17.647Z,3.70
2022-09-27T05:31:45.118Z,4.85
2022-09-27T05:34:12.906Z,3.13
2022-09-27T05:36:40.326Z,6.07
2022-09-27T05:39:09.300Z,5.68
2022-09-27T05:41:36.844Z,6.53
2022-09-27T05:44:05.023Z,3.85
2022-09-27T05:46:32.503Z,4.47
2022-09-27T05:49:00.131Z,4.00
2022-09-27T05:51:28.293Z,5.85
2022-09-27T05:53:55.840Z,3.78
2022-09-27T05:56:24.993Z,3.97
2022-09-27T05:58:52.398Z,3.58
2022-09-27T06:01:20.011Z,2.92
2022-09-27T06:03:47.727Z,4.75
2022-09-27T06:06:15.489Z,4.60
2022-09-27T06:08:43.112Z,3.28
2022-09-27T06:11:12.424Z,3.90
2022-09-27T06:13:41.227Z,4.10
2022-09-27T06:16:09.720Z,6.55
2022-09-27T06:18:37.635Z,6.45
2022-09-27T06:21:05.702Z,6.32
2022-09-27T06:23:33.698Z,3.80
2022-09-27T06:26:02.541Z,4.88
2022-09-27T06:28:30.071Z,4.93
2022-09-27T06:31:00.391Z,4.32
2022-09-27T06:33:28.962Z,3.88
2022-09-27T06:35:56.410Z,7.30
2022-09-27T06:38:24.860Z,6.00
2022-09-27T06:40:52.358Z,6.78
2022-09-27T06:43:21.147Z,4.93
2022-09-27T06:45:48.838Z,4.05
2022-09-27T06:48:17.818Z,5.70
2022-09-27T06:50:46.239Z,4.18
2022-09-27T06:53:14.399Z,4.38
2022-09-27T06:55:41.860Z,4.43
2022-09-27T06:58:28.935Z,5.63
2022-09-27T07:00:56.443Z,6.38
2022-09-27T07:03:29.514Z,3.90
2022-09-27T07:06:00.755Z,4.00
2022-09-27T07:08:29.160Z,6.07
2022-09-27T07:10:57.082Z,4.38
2022-09-27T07:13:24.582Z,5.38
2022-09-27T07:15:51.998Z,5.50
2022-09-27T07:18:20.566Z,3.78
2022-09-27T07:20:50.062Z,5.10
2022-09-27T07:23:17.867Z,4.60
2022-09-27T07:25:45.339Z,14.13
2022-09-27T07:28:18.409Z,8.35
2022-09-27T07:30:48.632Z,6.97
2022-09-27T07:33:16.187Z,6.68
2022-09-27T07:35:43.967Z,4.15
2022-09-27T07:38:14.001Z,4.05
2022-09-27T07:40:42.058Z,4.43
2022-09-27T07:43:10.303Z,4.32
2022-09-27T07:45:37.914Z,3.83
2022-09-27T07:48:06.163Z,6.50
2022-09-27T07:50:33.871Z,5.68
2022-09-27T07:53:01.322Z,7.07
2022-09-27T07:55:30.108Z,6.50
2022-09-27T07:58:03.064Z,4.65
2022-09-27T08:00:31.005Z,4.60
2022-09-27T08:02:58.764Z,9.52
2022-09-27T08:05:26.335Z,5.50
2022-09-27T08:07:57.743Z,4.00
2022-09-27T08:10:27.274Z,3.85
2022-09-27T08:12:56.247Z,3.85
2022-09-27T08:15:23.682Z,3.80
2022-09-27T08:17:51.733Z,4.57
2022-09-27T08:20:19.597Z,4.47
2022-09-27T08:22:47.047Z,5.95
2022-09-27T08:25:15.478Z,5.63
2022-09-27T08:27:43.011Z,4.72
2022-09-27T08:30:12.358Z,4.63
2022-09-27T08:32:39.831Z,4.47
2022-09-27T08:35:08.318Z,5.10
2022-09-27T08:37:35.791Z,4.68
2022-09-27T08:40:03.750Z,4.22
2022-09-27T08:42:36.777Z,5.32
2022-09-27T08:45:08.287Z,3.58
2022-09-27T08:47:38.813Z,3.90
2022-09-27T08:50:11.157Z,5.10
2022-09-27T08:52:41.244Z,4.82
2022-09-27T08:55:18.275Z,3.85
2022-09-27T08:57:50.546Z,4.95
2022-09-27T09:00:18.195Z,4.93
2022-09-27T09:02:47.087Z,3.90
2022-09-27T09:05:18.487Z,3.65
2022-09-27T09:07:52.647Z,5.07
2022-09-27T09:10:40.170Z,3.78
2022-09-27T09:13:14.215Z,4.93
2022-09-27T09:15:58.071Z,4.65
2022-09-27T09:18:32.173Z,3.58
2022-09-27T09:21:04.317Z,4.55
2022-09-27T09:23:40.922Z,4.85
2022-09-27T09:26:12.513Z,4.88
2022-09-27T09:28:45.563Z,4.72
2022-09-27T09:31:16.387Z,4.68
2022-09-27T09:36:16.776Z,3.00
2022-09-27T09:38:46.058Z,4.05
2022-09-27T09:41:17.598Z,6.95
2022-09-27T09:43:48.152Z,3.88
2022-09-27T09:46:17.714Z,2.38
2022-09-27T09:48:46.864Z,2.63
2022-09-27T09:51:18.879Z,3.30
2022-09-27T09:53:49.210Z,3.15
2022-09-27T09:56:18.440Z,2.70
2022-09-27T09:58:48.105Z,2.55
2022-09-27T10:01:19.360Z,2.65
2022-09-27T10:03:47.007Z,3.08
2022-09-27T10:06:16.412Z,2.80
2022-09-27T10:08:44.357Z,3.22
2022-09-27T10:11:18.246Z,2.65
2022-09-27T10:13:45.696Z,3.63
2022-09-27T10:16:15.436Z,2.45
2022-09-27T10:18:47.638Z,2.47
2022-09-27T10:21:21.032Z,4.00
2022-09-27T10:24:10.427Z,2.72
2022-09-27T10:26:43.182Z,2.75
2022-09-27T10:29:17.545Z,2.20
2022-09-27T10:31:47.894Z,3.90
2022-09-27T10:34:19.715Z,3.53
2022-09-27T10:37:02.225Z,2.85
2022-09-27T10:39:29.638Z,4.75
2022-09-27T10:41:57.187Z,3.08
2022-09-27T10:44:26.452Z,4.53
2022-09-27T10:46:54.388Z,3.30
2022-09-27T10:49:23.505Z,4.13
2022-09-27T10:51:53.598Z,2.45
2022-09-27T10:54:22.364Z,2.85
2022-09-27T10:56:56.375Z,3.15
2022-09-27T10:59:24.107Z,4.78
2022-09-27T11:01:52.932Z,2.85
2022-09-27T11:04:22.253Z,2.40
2022-09-27T11:06:50.047Z,3.17
2022-09-27T11:09:23.227Z,3.28
2022-09-27T11:11:50.919Z,3.05
2022-09-27T11:14:19.705Z,3.35
2022-09-27T11:16:55.907Z,3.97
2022-09-27T11:19:29.038Z,3.65
2022-09-27T11:22:01.168Z,2.55
2022-09-27T11:24:35.907Z,2.38
2022-09-27T11:27:08.262Z,3.42
2022-09-27T11:29:40.725Z,3.08
2022-09-27T11:32:14.351Z,4.18
2022-09-27T11:34:54.395Z,2.63
2022-09-27T11:37:25.196Z,2.47
2022-09-27T11:40:02.507Z,2.53
2022-09-27T11:45:34.157Z,2.90
2022-09-27T11:48:00.410Z,3.63
2022-09-27T11:50:36.028Z,4.35
2022-09-27T11:53:09.537Z,3.10
2022-09-27T11:55:44.226Z,4.57
2022-09-27T11:58:19.256Z,2.30
2022-09-27T12:00:53.962Z,2.95
2022-09-27T12:03:36.250Z,2.03
2022-09-27T12:06:07.842Z,1.88
2022-09-27T12:08:44.143Z,2.35
2022-09-27T12:11:16.238Z,3.90
2022-09-27T12:13:46.086Z,2.20
2022-09-27T12:16:16.053Z,2.38
2022-09-27T12:18:48.027Z,3.10
2022-09-27T12:21:18.833Z,4.90
2022-09-27T12:23:47.426Z,3.40
2022-09-27T12:26:18.196Z,2.47
2022-09-27T12:28:50.570Z,2.88
2022-09-27T12:31:30.131Z,2.63
2022-09-27T12:34:02.408Z,3.10
2022-09-27T12:36:38.014Z,3.95
2022-09-27T12:39:08.754Z,4.53
2022-09-27T12:41:39.144Z,5.95
2022-09-27T12:44:06.605Z,4.22
2022-09-27T12:46:39.965Z,5.43
2022-09-27T12:49:11.163Z,3.40
2022-09-27T12:51:40.551Z,4.78
2022-09-27T12:54:25.234Z,4.28
2022-09-27T12:56:58.035Z,2.97
2022-09-27T12:59:37.067Z,4.15
2022-09-27T13:02:19.037Z,5.10
2022-09-27T13:04:53.825Z,4.63
2022-09-27T13:07:27.371Z,3.10
2022-09-27T13:10:02.631Z,2.83
2022-09-27T13:12:32.183Z,4.47
2022-09-27T13:15:01.047Z,3.60
2022-09-27T13:17:49.180Z,2.60
2022-09-27T13:20:33.856Z,3.78
2022-09-27T13:23:01.972Z,3.55
2022-09-27T13:25:51.766Z,2.65
2022-09-27T13:28:58.345Z,3.38
2022-09-27T13:31:40.623Z,4.57
2022-09-27T13:34:29.326Z,3.20
2022-09-27T13:36:57.341Z,4.10
2022-09-27T13:39:24.826Z,5.95
2022-09-27T13:42:09.029Z,4.55
2022-09-27T13:44:41.716Z,6.35
2022-09-27T13:47:16.533Z,3.75
2022-09-27T13:49:47.827Z,4.10
2022-09-27T13:52:20.671Z,3.40
2022-09-27T13:54:52.784Z,2.50
2022-09-27T13:57:35.045Z,3.30
2022-09-27T14:00:05.031Z,3.15
2022-09-27T14:02:33.152Z,2.55
2022-09-27T14:05:02.508Z,3.00
2022-09-27T14:07:35.112Z,2.30
2022-09-27T14:10:02.941Z,3.38
2022-09-27T14:12:33.433Z,3.47
2022-09-27T14:15:02.660Z,2.65
2022-09-27T14:17:31.250Z,5.05
2022-09-27T14:19:58.708Z,2.53
2022-09-27T14:22:27.421Z,2.60
2022-09-27T14:24:55.726Z,2.95
2022-09-27T14:27:24.021Z,2.47
2022-09-27T14:29:53.287Z,2.55
2022-09-27T14:32:21.850Z,2.38
2022-09-27T14:35:03.658Z,2.90
2022-09-27T14:37:31.675Z,2.88
2022-09-27T14:40:00.447Z,4.75
2022-09-27T14:42:32.364Z,3.08
2022-09-27T14:45:02.097Z,4.18
2022-09-27T14:47:29.602Z,3.50
2022-09-27T14:49:58.964Z,2.47
2022-09-27T14:52:29.999Z,2.20
2022-09-27T14:54:59.953Z,4.78
2022-09-27T14:57:28.507Z,3.47
2022-09-27T14:59:57.591Z,2.40
2022-09-27T15:02:26.373Z,3.00
2022-09-27T15:04:54.527Z,3.00
2022-09-27T15:07:22.523Z,3.10
2022-09-27T15:09:50.818Z,3.13
2022-09-27T15:12:24.804Z,3.42
2022-09-27T15:14:54.248Z,3.53
2022-09-27T15:17:22.788Z,3.53
2022-09-27T15:20:03.747Z,3.28
2022-09-27T15:22:36.055Z,2.90
2022-09-27T15:25:08.942Z,2.88
2022-09-27T15:27:38.674Z,3.20
2022-09-27T15:30:06.478Z,4.57
2022-09-27T15:32:33.967Z,3.30
2022-09-27T15:35:08.002Z,3.55
2022-09-27T15:37:36.671Z,4.50
2022-09-27T15:40:19.599Z,5.50
2022-09-27T15:42:57.692Z,7.93
2022-09-27T15:45:29.088Z,4.78
2022-09-27T15:47:56.537Z,4.88
2022-09-27T15:50:34.636Z,3.70
2022-09-27T15:53:02.870Z,4.97
2022-09-27T15:55:30.519Z,5.85
2022-09-27T15:58:02.026Z,4.78
2022-09-27T16:00:30.581Z,6.10
2022-09-27T16:02:58.193Z,4.95
2022-09-27T16:05:27.041Z,7.00
2022-09-27T16:07:54.598Z,6.45
2022-09-27T16:10:23.483Z,5.95
2022-09-27T16:12:51.176Z,4.88
2022-09-27T16:15:19.920Z,4.40
2022-09-27T16:17:47.286Z,5.40
2022-09-27T16:20:17.835Z,6.82
2022-09-27T16:22:45.363Z,4.95
2022-09-27T16:25:13.076Z,6.78
2022-09-27T16:27:40.979Z,4.45
2022-09-27T16:30:08.994Z,5.95
2022-09-27T16:32:42.482Z,4.80
2022-09-27T16:35:10.492Z,4.65
2022-09-27T16:37:38.021Z,5.57
2022-09-27T16:40:06.413Z,4.88
2022-09-27T16:42:33.776Z,6.07
2022-09-27T16:45:04.836Z,5.00
2022-09-27T16:47:35.402Z,5.05
2022-09-27T16:50:22.011Z,6.00
2022-09-27T16:52:50.062Z,4.82
2022-09-27T16:55:20.937Z,4.30
2022-09-27T17:00:16.119Z,6.30
2022-09-27T17:02:47.096Z,4.80
2022-09-27T17:05:16.405Z,5.15
2022-09-27T17:07:43.790Z,11.35
2022-09-27T17:10:11.227Z,6.88
2022-09-27T17:12:38.603Z,6.40
2022-09-27T17:15:06.442Z,5.75
2022-09-27T17:17:33.836Z,5.85
2022-09-27T17:20:01.372Z,9.88
2022-09-27T17:22:30.085Z,8.18
2022-09-27T17:24:57.670Z,7.88
2022-09-27T17:27:27.187Z,8.15
2022-09-27T17:29:54.551Z,9.60
2022-09-27T17:32:24.175Z,8.07
2022-09-27T17:34:51.568Z,9.63
2022-09-27T17:37:18.957Z,7.38
2022-09-27T17:39:47.709Z,9.90
2022-09-27T17:42:15.100Z,7.97
2022-09-27T17:44:42.732Z,10.48
2022-09-27T17:47:27.864Z,8.60
2022-09-27T17:50:12.843Z,9.25
2022-09-27T17:52:40.216Z,9.35
2022-09-27T17:55:09.398Z,7.18
2022-09-27T17:57:36.754Z,9.23
2022-09-27T18:00:05.691Z,9.57
2022-09-27T18:02:33.120Z,11.80
2022-09-27T18:05:00.611Z,10.77
2022-09-27T18:07:29.008Z,8.30
2022-09-27T18:09:57.018Z,7.75
2022-09-27T18:12:31.903Z,6.82
2022-09-27T18:14:59.576Z,7.72
2022-09-27T18:17:27.800Z,7.85
2022-09-27T18:19:56.884Z,7.80
2022-09-27T18:22:25.769Z,8.18
2022-09-27T18:24:53.188Z,7.88
2022-09-27T18:27:21.114Z,8.20
2022-09-27T18:29:49.805Z,8.75
2022-09-27T18:32:17.341Z,7.70
2022-09-27T18:34:44.764Z,8.85
2022-09-27T18:37:12.159Z,9.48
2022-09-27T18:39:40.196Z,8.65
2022-09-27T18:42:08.902Z,7.03
2022-09-27T18:44:36.258Z,8.10
2022-09-27T18:47:05.123Z,8.27
2022-09-27T18:49:34.263Z,8.43
2022-09-27T18:52:02.608Z,6.13
2022-09-27T18:54:30.063Z,7.45
2022-09-27T18:56:57.374Z,8.40
2022-09-27T18:59:24.719Z,7.10
2022-09-27T19:01:52.167Z,8.30
2022-09-27T19:04:23.978Z,9.25
2022-09-27T19:06:51.945Z,9.73
2022-09-27T19:09:19.325Z,7.28
2022-09-27T19:11:46.736Z,5.03
2022-09-27T19:14:15.942Z,3.50
2022-09-27T19:16:43.348Z,4.85
2022-09-27T19:19:10.713Z,4.00
2022-09-27T19:21:39.474Z,4.38
2022-09-27T19:24:06.979Z,4.18
2022-09-27T19:26:34.395Z,4.22
2022-09-27T19:29:02.438Z,3.53
2022-09-27T19:31:30.308Z,4.65
2022-09-27T19:34:00.446Z,4.05
2022-09-27T19:36:28.406Z,5.43
2022-09-27T19:38:58.481Z,2.83
2022-09-27T19:41:26.714Z,3.42
2022-09-27T19:43:54.591Z,5.40
2022-09-27T19:46:22.494Z,3.53
2022-09-27T19:48:50.479Z,3.28
2022-09-27T19:51:18.947Z,5.28
2022-09-27T19:53:46.303Z,3.95
2022-09-27T19:56:15.308Z,6.57
2022-09-27T19:58:43.151Z,5.13
2022-09-27T20:01:11.472Z,3.97
2022-09-27T20:03:40.173Z,4.22
2022-09-27T20:06:08.796Z,3.78
2022-09-27T20:08:36.164Z,3.92
2022-09-27T20:11:06.541Z,3.22
2022-09-27T20:13:36.080Z,2.67
2022-09-27T20:16:04.483Z,4.35
2022-09-27T20:18:32.155Z,2.97
2022-09-27T20:21:00.338Z,5.68
2022-09-27T20:23:28.079Z,3.65
2022-09-27T20:25:59.766Z,2.80
2022-09-27T20:28:27.530Z,2.63
2022-09-27T20:31:00.263Z,3.75
2022-09-27T20:33:43.917Z,3.72
2022-09-27T20:36:12.380Z,4.03
2022-09-27T20:38:40.536Z,4.40
2022-09-27T20:41:07.950Z,2.92
2022-09-27T20:43:35.376Z,4.47
2022-09-27T20:46:05.170Z,3.50
2022-09-27T20:48:32.719Z,5.15
2022-09-27T20:51:04.472Z,4.05
2022-09-27T20:53:32.668Z,2.53
2022-09-27T20:56:02.575Z,3.95
2022-09-27T20:58:30.448Z,3.45
2022-09-27T21:00:58.635Z,2.92
2022-09-27T21:03:27.395Z,2.70
2022-09-27T21:05:55.501Z,3.67
2022-09-27T21:08:22.895Z,3.17
2022-09-27T21:10:52.834Z,3.20
2022-09-27T21:13:20.710Z,4.68
2022-09-27T21:15:48.541Z,3.03
2022-09-27T21:18:15.918Z,3.42
2022-09-27T21:20:44.699Z,4.10
2022-09-27T21:23:12.079Z,4.18
2022-09-27T21:25:39.443Z,5.95
2022-09-27T21:28:06.802Z,3.72
2022-09-27T21:30:36.157Z,3.90
2022-09-27T21:33:03.887Z,7.30
2022-09-27T21:35:31.232Z,3.42
2022-09-27T21:38:00.321Z,3.33
2022-09-27T21:40:27.804Z,4.90
2022-09-27T21:42:57.784Z,5.00
2022-09-27T21:45:25.404Z,5.78
2022-09-27T21:47:52.791Z,5.90
2022-09-27T21:50:20.158Z,4.90
2022-09-27T21:52:47.518Z,3.28
2022-09-27T21:55:16.238Z,3.78
2022-09-27T21:57:43.631Z,4.15
2022-09-27T22:00:11.514Z,2.90
2022-09-27T22:02:39.047Z,3.90
2022-09-27T22:05:06.814Z,3.75
2022-09-27T22:07:34.189Z,6.10
2022-09-27T22:10:01.560Z,3.88
2022-09-27T22:12:30.234Z,3.22
2022-09-27T22:14:57.601Z,3.50
2022-09-27T22:17:25.485Z,4.60
2022-09-27T22:19:52.898Z,3.92
2022-09-27T22:22:20.212Z,6.10
2022-09-27T22:24:47.620Z,3.67
2022-09-27T22:27:14.945Z,4.40
2022-09-27T22:29:43.648Z,4.85
2022-09-27T22:32:11.319Z,4.03
2022-09-27T22:34:38.703Z,4.28
2022-09-27T22:37:06.091Z,5.03
2022-09-27T22:39:33.899Z,6.30
2022-09-27T22:42:01.270Z,4.30
2022-09-27T22:44:28.590Z,3.67
2022-09-27T22:46:57.334Z,4.65
2022-09-27T22:49:24.693Z,5.22
2022-09-27T22:51:52.111Z,5.15
2022-09-27T22:54:19.932Z,5.78
2022-09-27T22:56:47.255Z,4.80
2022-09-27T22:59:14.750Z,4.60
2022-09-27T23:01:42.191Z,4.70
2022-09-27T23:04:11.007Z,6.05
2022-09-27T23:06:39.934Z,5.80
2022-09-27T23:09:07.256Z,3.88
2022-09-27T23:11:34.623Z,5.05
2022-09-27T23:14:04.723Z,5.18
2022-09-27T23:16:33.620Z,4.72
2022-09-27T23:19:01.404Z,4.88
2022-09-27T23:21:30.183Z,5.63
2022-09-27T23:23:59.578Z,5.53
2022-09-27T23:26:27.691Z,4.82
2022-09-27T23:28:55.787Z,5.10
2022-09-27T23:31:23.965Z,4.63
2022-09-27T23:33:51.990Z,5.50
2022-09-27T23:36:20.217Z,5.05
2022-09-27T23:38:49.231Z,4.93
2022-09-27T23:41:17.334Z,6.00
2022-09-27T23:43:45.394Z,5.45
2022-09-27T23:46:13.313Z,4.03
2022-09-27T23:48:40.801Z,6.45
2022-09-27T23:51:08.865Z,4.95
2022-09-27T23:53:36.463Z,5.88
2022-09-27T23:56:06.187Z,5.25
2022-09-27T23:58:34.137Z,8.45
